Time;durP1;ratioP1;P1;durP2;ratioP2;P2;SDS_P1;SDS_P2;PMS_P1;PMS_P2;Temp;Humidity;BMP_temperature;BMP_pressure;BME280_temperature;BME280_humidity;BME280_pressure;Samples;Min_cycle;Max_cycle;Signal;HPM_P1;HPM_P2
2022/12/16 00:01:17;;;;;;;56.17;32.13;;;-1.20;99.90;;;;;;6094517;23;20022;-84
2022/12/16 00:04:07;;;;;;;56.23;32.80;;;-1.10;99.90;;;;;;6095186;23;20019;-83
2022/12/16 00:06:51;;;;;;;54.57;33.00;;;0.00;99.90;;;;;;6096275;23;20026;-83
2022/12/16 00:10:04;;;;;;;56.40;31.97;;;-1.70;99.90;;;;;;6076489;23;20033;-83
2022/12/16 00:12:48;;;;;;;59.60;34.43;;;0.20;99.90;;;;;;6067154;23;20329;-84
2022/12/16 00:15:29;;;;;;;56.05;33.08;;;0.30;99.90;;;;;;6067347;23;20452;-83
2022/12/16 00:17:55;;;;;;;56.80;32.67;;;-1.40;99.90;;;;;;6068365;23;20038;-83
2022/12/16 00:20:30;;;;;;;59.17;33.33;;;-0.40;99.90;;;;;;6066725;23;20026;-84
2022/12/16 00:23:11;;;;;;;55.67;32.07;;;-1.70;99.90;;;;;;6066879;23;20019;-84
2022/12/16 00:25:52;;;;;;;51.73;31.10;;;-1.40;99.90;;;;;;6066154;23;20060;-84
2022/12/16 00:28:26;;;;;;;57.47;31.87;;;-1.30;99.90;;;;;;6068119;23;20022;-84
2022/12/16 00:30:54;;;;;;;51.30;31.67;;;-1.40;99.90;;;;;;6068035;23;20102;-84
2022/12/16 00:33:35;;;;;;;56.27;32.93;;;-0.90;99.90;;;;;;6066261;23;20022;-83
2022/12/16 00:36:16;;;;;;;55.33;32.60;;;-0.80;99.90;;;;;;6065498;23;20456;-83
2022/12/16 00:39:06;;;;;;;57.10;32.67;;;-0.90;99.90;;;;;;6071874;23;20019;-83
2022/12/16 00:41:50;;;;;;;53.97;31.97;;;-1.10;99.90;;;;;;6067979;23;20449;-83
2022/12/16 00:44:34;;;;;;;;;;;-1.30;99.90;;;;;;6065987;23;20500;-83
2022/12/16 00:47:22;;;;;;;52.75;31.52;;;0.40;99.90;;;;;;6073414;23;19918;-83
2022/12/16 00:49:57;;;;;;;55.13;33.07;;;-1.60;99.90;;;;;;6042859;23;20038;-83
2022/12/16 00:52:46;;;;;;;51.60;31.50;;;0.10;99.90;;;;;;6065896;23;20487;-84
2022/12/16 00:55:24;;;;;;;54.83;32.10;;;-0.80;99.90;;;;;;6067693;23;20015;-83
2022/12/16 00:58:10;;;;;;;58.93;33.63;;;-0.50;99.90;;;;;;6067305;23;20022;-83
2022/12/16 01:00:55;;;;;;;54.77;30.97;;;-0.40;99.90;;;;;;6068504;23;20041;-84
2022/12/16 01:03:33;;;;;;;54.17;32.33;;;-0.90;99.90;;;;;;6069499;23;20015;-84
2022/12/16 01:06:16;;;;;;;57.53;32.70;;;-0.50;99.90;;;;;;6090270;23;20022;-84
2022/12/16 01:08:59;;;;;;;53.33;30.60;;;-0.70;99.90;;;;;;6096948;23;20022;-83
2022/12/16 01:11:39;;;;;;;57.30;32.37;;;-1.00;99.90;;;;;;6097491;23;20014;-84
2022/12/16 01:14:19;;;;;;;58.00;33.27;;;0.10;99.90;;;;;;6098112;23;20273;-83
2022/12/16 01:16:45;;;;;;;55.77;31.20;;;-1.30;99.90;;;;;;6097046;23;20455;-83
2022/12/16 01:19:26;;;;;;;59.00;32.90;;;-1.70;99.90;;;;;;6095428;23;20010;-83
2022/12/16 01:21:51;;;;;;;55.83;32.40;;;-1.60;99.90;;;;;;6099185;23;20340;-85
2022/12/16 01:24:35;;;;;;;56.70;32.30;;;-0.60;99.90;;;;;;6096641;23;20021;-84
2022/12/16 01:27:15;;;;;;;58.55;31.90;;;-0.40;99.90;;;;;;6096582;23;20046;-84
2022/12/16 01:29:56;;;;;;;57.90;32.00;;;-1.60;99.90;;;;;;6096771;23;20097;-83
2022/12/16 01:32:37;;;;;;;55.50;31.57;;;-0.50;99.90;;;;;;6097067;23;20018;-83
2022/12/16 01:35:21;;;;;;;55.20;31.97;;;-1.70;99.90;;;;;;6096323;23;20014;-83
2022/12/16 01:38:11;;;;;;;;;;;-0.90;99.90;;;;;;6098534;23;20015;-83
2022/12/16 01:40:39;;;;;;;58.00;31.90;;;-1.30;99.90;;;;;;6095617;23;20121;-83
2022/12/16 01:43:32;;;;;;;57.37;32.07;;;-2.20;99.90;;;;;;6096533;23;20014;-84
2022/12/16 01:49:42;;;;;;;58.77;32.53;;;-1.30;99.90;;;;;;6096479;23;20026;-85
2022/12/16 01:55:17;;;;;;;60.40;32.53;;;-1.70;99.90;;;;;;6096019;23;20034;-84
2022/12/16 01:58:06;;;;;;;;;;;;;;;;;;;;;
2022/12/16 02:00:41;;;;;;;62.90;33.03;;;0.10;99.90;;;;;;6096836;23;20102;-83
2022/12/16 02:03:22;;;;;;;57.77;32.40;;;-1.40;99.90;;;;;;6095695;23;20057;-83
2022/12/16 02:06:13;;;;;;;56.43;33.10;;;-1.70;99.90;;;;;;6111032;23;20032;-84
2022/12/16 02:08:54;;;;;;;62.17;34.40;;;-1.60;99.90;;;;;;6126009;23;20025;-84
2022/12/16 02:12:05;;;;;;;61.07;32.20;;;-2.00;99.90;;;;;;6126085;23;20022;-84
2022/12/16 02:15:16;;;;;;;60.37;33.07;;;-1.50;99.90;;;;;;6123931;23;20443;-84
2022/12/16 02:18:08;;;;;;;59.67;33.03;;;-1.50;99.90;;;;;;6130893;23;20057;-83
2022/12/16 02:21:19;;;;;;;64.07;33.77;;;-1.50;99.90;;;;;;6126790;23;20021;-84
2022/12/16 02:24:03;;;;;;;64.57;33.00;;;-1.50;99.90;;;;;;6124597;23;20014;-84
2022/12/16 02:26:54;;;;;;;61.57;31.53;;;-1.90;99.90;;;;;;6130278;23;20021;-83
2022/12/16 02:30:05;;;;;;;62.63;34.20;;;-1.70;99.90;;;;;;6066274;23;20077;-83
2022/12/16 02:32:36;;;;;;;64.67;33.23;;;-2.70;99.90;;;;;;6071657;23;20018;-83
2022/12/16 02:35:55;;;;;;;63.07;34.93;;;-0.70;99.90;;;;;;6067756;23;20018;-84
2022/12/16 02:38:58;;;;;;;62.10;33.87;;;-2.20;99.90;;;;;;6044931;23;20018;-83
2022/12/16 02:41:51;;;;;;;59.67;33.03;;;-1.70;99.90;;;;;;6096022;23;20022;-84
2022/12/16 02:45:07;;;;;;;60.93;33.70;;;-1.80;99.90;;;;;;6096693;23;20115;-83
2022/12/16 02:47:51;;;;;;;67.03;34.67;;;-1.70;99.90;;;;;;6098316;23;20026;-83
2022/12/16 02:51:00;;;;;;;65.73;34.90;;;-1.40;99.90;;;;;;6095903;23;20065;-84
2022/12/16 02:53:51;;;;;;;61.80;34.50;;;-2.30;99.90;;;;;;6058986;23;20022;-84
2022/12/16 02:59:50;;;;;;;60.53;33.20;;;-1.60;99.90;;;;;;6097159;23;20097;-84
2022/12/16 03:03:04;;;;;;;60.97;34.93;;;-2.50;99.90;;;;;;6097198;23;20057;-83
2022/12/16 03:05:41;;;;;;;65.60;34.47;;;-1.20;99.90;;;;;;6056674;23;20023;-83
2022/12/16 03:08:29;;;;;;;60.53;33.97;;;-0.70;99.90;;;;;;6099104;23;20023;-83
2022/12/16 03:10:59;;;;;;;57.30;33.17;;;-1.20;99.90;;;;;;6094793;23;20027;-83
2022/12/16 03:14:15;;;;;;;63.67;34.23;;;-0.30;99.90;;;;;;6097403;23;20022;-83
2022/12/16 03:16:59;;;;;;;61.40;33.23;;;-1.60;99.90;;;;;;6008378;23;20023;-84
2022/12/16 03:19:29;;;;;;;62.20;32.80;;;-2.10;99.90;;;;;;6007387;23;20083;-83
2022/12/16 03:22:46;;;;;;;61.80;35.83;;;-1.70;99.90;;;;;;6048870;23;20097;-83
2022/12/16 03:25:20;;;;;;;66.33;34.80;;;-1.40;99.90;;;;;;6069944;23;20018;-84
2022/12/16 03:28:04;;;;;;;59.20;34.33;;;-2.50;99.90;;;;;;6097028;23;20355;-84
2022/12/16 03:30:53;;;;;;;64.47;35.38;;;-1.20;99.90;;;;;;6096779;23;20056;-83
2022/12/16 03:33:44;;;;;;;62.77;36.00;;;0.60;99.90;;;;;;6095808;23;20093;-83
2022/12/16 03:36:35;;;;;;;71.73;35.03;;;-1.90;99.90;;;;;;6096441;23;20069;-83
2022/12/16 03:39:03;;;;;;;69.50;36.93;;;-1.40;99.90;;;;;;6070732;23;20022;-83
2022/12/16 03:41:51;;;;;;;66.20;36.03;;;-1.50;99.90;;;;;;6072042;23;20057;-83
2022/12/16 03:44:35;;;;;;;64.37;37.40;;;-1.80;99.90;;;;;;6070994;23;20447;-83
2022/12/16 03:47:18;;;;;;;71.55;38.08;;;-0.50;99.90;;;;;;6070305;23;20021;-83
2022/12/16 03:49:53;;;;;;;66.57;36.30;;;-1.80;99.90;;;;;;6097053;23;20026;-83
2022/12/16 03:52:40;;;;;;;69.53;37.57;;;-1.30;99.90;;;;;;6070054;23;20404;-84
2022/12/16 03:55:24;;;;;;;67.37;37.10;;;-0.50;99.90;;;;;;6096789;23;20022;-83
2022/12/16 03:57:51;;;;;;;68.93;36.50;;;-1.50;99.90;;;;;;6103971;23;20029;-84
2022/12/16 04:00:26;;;;;;;68.17;35.97;;;-1.00;99.90;;;;;;6070722;23;20344;-84
2022/12/16 04:02:51;;;;;;;69.23;37.47;;;-2.10;99.90;;;;;;6071218;23;20022;-84
2022/12/16 04:05:26;;;;;;;72.07;37.10;;;-1.40;99.90;;;;;;6104480;23;20021;-84
2022/12/16 04:07:52;;;;;;;68.60;35.90;;;-1.60;99.90;;;;;;6097686;23;20024;-83
2022/12/16 04:25:11;;;;;;;64.87;35.97;;;-1.20;99.90;;;;;;6067769;23;20037;-84
2022/12/16 04:27:48;;;;;;;68.23;36.63;;;-1.10;99.90;;;;;;6066895;23;20068;-84
2022/12/16 04:30:33;;;;;;;66.43;36.03;;;-1.40;99.90;;;;;;6042037;23;20090;-84
